Time;durP1;ratioP1;P1;durP2;ratioP2;P2;SDS_P1;SDS_P2;PMS_P1;PMS_P2;Temp;Humidity;BMP_temperature;BMP_pressure;BME280_temperature;BME280_humidity;BME280_pressure;Samples;Min_cycle;Max_cycle;Signal;HPM_P1;HPM_P2
2023/12/27 09:04:25;;;;;;;9.03;3.70;;;;;;;10.13;78.06;101051.22;5857485;24;20189;-69
2023/12/27 09:07:42;;;;;;;7.97;3.50;;;;;;;10.05;78.68;101051.03;5963270;23;20184;-70
2023/12/27 09:10:26;;;;;;;10.03;4.43;;;;;;;10.07;78.94;101056.19;6147430;23;20193;-71
2023/12/27 09:20:56;;;;;;;11.23;3.80;;;;;;;9.98;78.65;101084.31;6029085;23;20596;-69
2023/12/27 09:27:26;;;;;;;10.97;3.80;;;;;;;10.01;78.35;101069.97;6142729;23;20618;-68
2023/12/27 09:37:11;;;;;;;10.17;3.73;;;;;;;10.06;77.67;101057.16;6055836;23;20188;-67
2023/12/27 09:39:48;;;;;;;8.77;3.50;;;;;;;10.11;75.96;101047.03;6109327;23;20190;-70
2023/12/27 09:42:38;;;;;;;8.93;3.37;;;;;;;10.14;75.56;101034.34;6144234;23;20189;-69
2023/12/27 09:45:15;;;;;;;7.50;3.10;;;;;;;10.26;75.32;101032.47;6142657;23;20278;-72
2023/12/27 09:47:45;;;;;;;15.07;2.93;;;;;;;10.30;73.50;101023.28;6144087;23;20187;-66
2023/12/27 09:50:14;;;;;;;8.80;3.40;;;;;;;10.38;73.34;101025.28;6144433;23;20236;-72
2023/12/27 09:52:46;;;;;;;10.10;3.67;;;;;;;10.37;72.22;101018.31;6187882;23;20182;-67
2023/12/27 09:55:14;;;;;;;8.47;3.00;;;;;;;10.27;72.29;101018.25;6237155;23;20165;-67
2023/12/27 09:57:46;;;;;;;13.17;3.17;;;;;;;10.21;72.23;101017.94;6237611;23;20674;-66
2023/12/27 10:01:09;;;;;;;8.93;3.30;;;;;;;10.18;73.18;101009.31;6237567;23;20782;-66
2023/12/27 10:03:38;;;;;;;9.83;3.33;;;;;;;10.26;72.97;101013.09;6214933;23;20251;-68
2023/12/27 10:06:20;;;;;;;12.50;3.43;;;;;;;10.52;73.00;101012.50;6237835;23;20184;-69
2023/12/27 10:08:51;;;;;;;7.93;4.17;;;;;;;11.08;71.11;101013.75;6238224;23;20201;-68
2023/12/27 10:11:21;;;;;;;11.37;3.60;;;;;;;11.66;68.78;100998.63;6237699;23;20247;-67
2023/12/27 10:13:51;;;;;;;14.27;5.10;;;;;;;12.87;64.56;100995.91;6237330;23;20183;-66
2023/12/27 10:16:19;;;;;;;14.37;4.77;;;;;;;13.24;61.15;100995.84;6237450;23;20637;-67
2023/12/27 10:18:47;;;;;;;13.57;4.80;;;;;;;13.08;60.93;100984.03;6237737;23;20179;-66
2023/12/27 10:21:16;;;;;;;14.43;3.93;;;;;;;12.57;61.79;100989.13;6237622;23;20615;-71
2023/12/27 10:23:44;;;;;;;10.83;3.97;;;;;;;12.30;63.17;100988.13;6236614;23;20195;-68
2023/12/27 10:26:14;;;;;;;13.20;5.07;;;;;;;12.18;63.79;100989.28;6237503;23;20179;-67
2023/12/27 10:28:44;;;;;;;7.43;2.77;;;;;;;12.00;63.73;100991.03;6237300;23;20199;-71
2023/12/27 10:31:13;;;;;;;11.40;3.17;;;;;;;11.97;65.05;100989.47;6237326;23;20510;-67
2023/12/27 10:33:42;;;;;;;7.03;3.00;;;;;;;12.15;64.86;100984.25;6236295;23;20175;-69
2023/12/27 10:36:10;;;;;;;8.90;3.17;;;;;;;13.20;62.24;100971.31;6238265;23;20230;-68
2023/12/27 10:38:39;;;;;;;7.70;2.47;;;;;;;14.16;59.30;100964.19;6237350;23;20186;-67
2023/12/27 10:41:07;;;;;;;8.23;2.37;;;;;;;14.78;56.18;100959.41;6237899;23;20208;-66
2023/12/27 10:43:39;;;;;;;8.67;2.80;;;;;;;15.07;54.94;100954.47;6236649;23;20190;-70
2023/12/27 10:46:09;;;;;;;7.53;2.10;;;;;;;14.94;55.03;100946.13;6237579;23;20221;-71
2023/12/27 10:48:40;;;;;;;7.77;2.50;;;;;;;14.33;55.83;100939.25;6238126;23;20176;-69
2023/12/27 10:51:09;;;;;;;7.90;1.80;;;;;;;13.48;57.42;100942.75;6237902;23;20200;-66
2023/12/27 10:53:43;;;;;;;11.07;2.70;;;;;;;12.85;59.19;100931.34;6236724;23;20182;-68
2023/12/27 10:56:11;;;;;;;9.60;2.43;;;;;;;12.57;60.79;100922.63;6237508;23;20171;-73
2023/12/27 10:58:45;;;;;;;10.83;2.70;;;;;;;12.26;62.26;100920.25;6237100;23;20186;-67
2023/12/27 11:01:14;;;;;;;9.13;2.50;;;;;;;11.94;63.20;100917.19;6236556;23;20249;-68
2023/12/27 11:03:44;;;;;;;9.63;2.73;;;;;;;11.61;64.15;100903.41;6237210;23;20204;-69
2023/12/27 11:06:13;;;;;;;11.53;2.63;;;;;;;11.43;65.25;100910.47;6236165;23;20198;-68
2023/12/27 11:08:44;;;;;;;8.63;2.73;;;;;;;11.33;65.83;100907.00;6237066;23;20205;-69
2023/12/27 11:11:14;;;;;;;8.37;2.30;;;;;;;11.26;65.96;100900.56;6235159;23;20168;-68
2023/12/27 11:13:47;;;;;;;8.43;2.60;;;;;;;11.10;66.76;100900.28;6236323;23;20179;-69
2023/12/27 11:16:23;;;;;;;6.37;2.30;;;;;;;11.01;67.71;100894.00;6236760;23;20199;-69
2023/12/27 11:18:54;;;;;;;9.67;3.00;;;;;;;10.98;68.20;100888.16;6236610;23;20250;-68
2023/12/27 11:21:23;;;;;;;7.90;2.90;;;;;;;10.93;68.68;100878.81;6232787;23;20511;-68
2023/12/27 11:23:53;;;;;;;15.97;3.47;;;;;;;10.93;69.33;100877.97;6234836;22;20306;-66
2023/12/27 11:26:23;;;;;;;9.07;2.87;;;;;;;10.85;69.62;100868.06;6237103;23;20186;-66
2023/12/27 11:28:55;;;;;;;9.47;3.10;;;;;;;11.00;69.74;100857.00;6235468;23;20194;-69
2023/12/27 11:31:23;;;;;;;10.23;2.73;;;;;;;11.12;69.40;100855.88;6235153;23;20651;-66
2023/12/27 11:33:53;;;;;;;10.23;2.57;;;;;;;11.25;68.38;100861.75;6235972;23;20615;-68
2023/12/27 11:36:21;;;;;;;7.17;2.43;;;;;;;11.22;66.63;100851.41;6235715;23;20182;-68
2023/12/27 11:38:49;;;;;;;7.17;2.43;;;;;;;11.24;66.65;100854.75;6236522;23;20234;-66
2023/12/27 11:41:17;;;;;;;8.17;2.70;;;;;;;11.29;65.94;100855.97;6236172;23;20225;-69
2023/12/27 11:43:56;;;;;;;7.83;2.60;;;;;;;11.36;65.48;100856.25;6235907;23;20163;-68
2023/12/27 11:46:26;;;;;;;15.03;2.60;;;;;;;11.44;65.13;100869.63;6235632;23;20179;-67
2023/12/27 11:48:55;;;;;;;10.13;2.43;;;;;;;11.49;65.18;100864.75;6236119;23;20217;-68
2023/12/27 11:51:34;;;;;;;7.23;2.43;;;;;;;11.48;65.53;100852.44;6236569;23;20237;-68
2023/12/27 11:54:07;;;;;;;10.27;2.30;;;;;;;11.59;65.58;100860.25;6236888;23;20206;-68
2023/12/27 11:56:37;;;;;;;7.53;2.30;;;;;;;11.63;65.72;100855.47;6237270;23;20164;-70
2023/12/27 11:59:11;;;;;;;7.83;2.47;;;;;;;11.54;65.33;100837.72;6238377;23;20164;-68
2023/12/27 12:01:42;;;;;;;9.27;2.87;;;;;;;11.49;65.49;100827.56;6236450;23;20214;-68
2023/12/27 12:04:46;;;;;;;5.93;2.30;;;;;;;11.48;65.85;100825.03;6237872;23;20226;-68
2023/12/27 12:07:38;;;;;;;6.13;2.20;;;;;;;11.46;66.36;100819.88;6238073;23;20171;-68
2023/12/27 12:10:21;;;;;;;6.43;1.87;;;;;;;11.49;66.16;100813.44;6237576;23;20192;-68
2023/12/27 12:12:51;;;;;;;7.27;2.30;;;;;;;11.41;66.59;100811.53;6238006;23;20163;-70
2023/12/27 12:15:23;;;;;;;8.13;1.93;;;;;;;11.49;67.06;100810.78;6237676;23;20194;-69
2023/12/27 12:17:53;;;;;;;9.77;1.97;;;;;;;11.62;66.82;100806.81;6239921;23;20217;-67
2023/12/27 12:20:21;;;;;;;9.60;2.50;;;;;;;11.64;66.73;100810.16;6241131;23;20190;-67
2023/12/27 12:22:50;;;;;;;7.87;2.87;;;;;;;11.81;66.66;100802.41;6238744;23;20179;-72
2023/12/27 12:25:24;;;;;;;9.47;3.00;;;;;;;11.83;66.28;100787.16;6237210;23;20255;-67
2023/12/27 12:27:55;;;;;;;11.80;3.03;;;;;;;11.85;65.77;100785.22;6237664;23;20198;-68
2023/12/27 12:30:25;;;;;;;9.80;3.30;;;;;;;11.83;66.21;100781.84;6237553;23;20187;-69
2023/12/27 12:32:55;;;;;;;8.33;3.80;;;;;;;11.90;66.14;100767.81;6238233;23;20183;-70
2023/12/27 12:35:23;;;;;;;8.30;3.23;;;;;;;11.89;65.85;100763.50;6237203;23;20179;-67
2023/12/27 12:37:52;;;;;;;10.83;3.63;;;;;;;11.80;66.59;100763.53;6238349;23;20179;-70
2023/12/27 12:40:20;;;;;;;8.60;2.50;;;;;;;11.73;66.61;100760.63;6238881;23;20175;-69
2023/12/27 12:42:48;;;;;;;7.37;2.37;;;;;;;11.72;66.62;100764.25;6237772;23;20175;-67
2023/12/27 12:45:17;;;;;;;7.67;2.40;;;;;;;11.70;66.94;100767.06;6237109;23;20207;-67
2023/12/27 12:47:47;;;;;;;6.87;2.10;;;;;;;11.69;66.84;100760.09;6237449;23;20259;-67
2023/12/27 12:50:18;;;;;;;13.33;3.23;;;;;;;11.70;67.19;100764.41;6237174;23;20204;-67
2023/12/27 12:52:47;;;;;;;8.37;2.20;;;;;;;11.66;67.21;100760.38;6237490;23;20174;-68
2023/12/27 12:55:15;;;;;;;6.27;2.47;;;;;;;11.61;67.19;100757.31;6236460;23;20175;-67
2023/12/27 12:57:44;;;;;;;7.33;2.17;;;;;;;11.54;67.55;100761.56;6237271;23;20627;-70
2023/12/27 13:00:13;;;;;;;9.67;2.70;;;;;;;11.60;67.60;100761.00;6237054;23;20187;-74
2023/12/27 13:02:43;;;;;;;6.03;2.10;;;;;;;11.76;67.22;100756.88;6238322;23;20635;-67
2023/12/27 13:05:51;;;;;;;6.77;2.00;;;;;;;11.76;67.03;100759.53;6235374;23;20180;-68
2023/12/27 13:08:20;;;;;;;9.83;2.53;;;;;;;11.77;67.02;100766.53;6237971;23;20171;-66
2023/12/27 13:10:49;;;;;;;8.63;2.33;;;;;;;11.73;66.90;100757.13;6236359;23;20253;-67
2023/12/27 13:13:20;;;;;;;8.37;2.30;;;;;;;11.59;67.31;100756.66;6237329;23;20237;-69
2023/12/27 13:15:51;;;;;;;4.17;1.80;;;;;;;11.53;67.58;100754.56;6237118;23;20174;-67
2023/12/27 13:18:20;;;;;;;5.20;1.90;;;;;;;11.49;67.80;100755.84;6238178;23;20179;-66
2023/12/27 13:20:54;;;;;;;7.23;2.07;;;;;;;11.39;68.12;100748.91;6237688;23;20186;-66
2023/12/27 13:23:23;;;;;;;9.33;2.13;;;;;;;11.27;68.71;100743.78;6237054;23;20199;-67
2023/12/27 13:29:06;;;;;;;9.17;2.27;;;;;;;11.32;68.75;100725.63;6220592;23;20183;-70
2023/12/27 13:31:37;;;;;;;9.93;2.70;;;;;;;11.37;68.68;100735.78;6236751;23;20217;-66
2023/12/27 13:34:11;;;;;;;8.23;2.30;;;;;;;11.45;68.44;100738.53;6236734;23;20494;-69
2023/12/27 13:36:41;;;;;;;9.87;2.53;;;;;;;11.45;68.58;100735.88;6238274;23;20463;-67
2023/12/27 13:39:26;;;;;;;9.53;2.10;;;;;;;11.52;68.31;100730.84;6237261;23;20627;-66
2023/12/27 13:41:55;;;;;;;8.77;2.70;;;;;;;11.41;68.83;100723.06;6237353;23;20191;-67
2023/12/27 13:44:23;;;;;;;8.50;2.73;;;;;;;11.33;68.71;100723.78;6237399;23;20186;-71
2023/12/27 13:50:36;;;;;;;12.77;2.77;;;;;;;11.18;69.33;100717.28;6238206;23;20199;-70
2023/12/27 13:53:19;;;;;;;10.50;3.27;;;;;;;11.13;69.16;100717.72;6233199;23;20190;-69
2023/12/27 13:55:48;;;;;;;10.27;3.50;;;;;;;11.15;69.26;100723.72;6237773;23;20183;-69
2023/12/27 13:58:16;;;;;;;10.10;3.67;;;;;;;11.15;69.10;100720.25;6237785;23;20211;-69
2023/12/27 14:00:44;;;;;;;10.83;3.67;;;;;;;11.16;69.03;100713.94;6238066;23;20205;-68
2023/12/27 14:03:15;;;;;;;8.73;3.03;;;;;;;11.11;69.35;100714.38;6236930;23;20186;-72
2023/12/27 14:05:44;;;;;;;5.10;3.00;;;;;;;11.12;69.12;100718.69;6237653;23;20522;-69
2023/12/27 14:08:12;;;;;;;9.00;2.57;;;;;;;11.07;69.45;100718.31;6237762;23;20658;-69
2023/12/27 14:10:42;;;;;;;11.37;3.80;;;;;;;11.08;69.32;100709.34;6237105;23;20228;-66
2023/12/27 14:13:11;;;;;;;11.67;4.03;;;;;;;11.04;69.73;100707.16;6235790;23;20447;-68
2023/12/27 14:15:40;;;;;;;9.27;3.60;;;;;;;11.03;69.73;100708.13;6237380;23;20210;-66
2023/12/27 14:18:09;;;;;;;9.77;3.43;;;;;;;10.99;70.09;100712.06;6236660;23;20178;-67
2023/12/27 14:20:42;;;;;;;14.23;3.00;;;;;;;10.96;70.29;100696.41;6237801;23;20213;-68
2023/12/27 14:23:12;;;;;;;6.30;3.00;;;;;;;10.93;70.44;100693.06;6237385;23;20234;-67
2023/12/27 14:25:48;;;;;;;10.17;3.43;;;;;;;10.90;70.48;100697.84;6237205;23;20748;-67
2023/12/27 14:28:17;;;;;;;12.70;3.33;;;;;;;10.88;70.76;100691.84;6237493;23;20193;-69
2023/12/27 14:30:50;;;;;;;8.90;3.03;;;;;;;10.84;70.64;100688.63;6236553;23;20541;-68
2023/12/27 14:33:19;;;;;;;10.37;3.40;;;;;;;10.78;70.96;100704.28;6237406;23;20174;-67
2023/12/27 14:35:48;;;;;;;12.23;3.80;;;;;;;10.74;71.35;100698.44;6237682;23;20308;-70
2023/12/27 14:38:16;;;;;;;8.30;3.17;;;;;;;10.71;71.25;100698.72;6237499;23;20186;-68
2023/12/27 14:40:46;;;;;;;7.70;3.40;;;;;;;10.63;71.38;100685.34;6237743;23;20239;-66
2023/12/27 14:43:17;;;;;;;10.07;3.30;;;;;;;10.56;71.76;100689.53;6237427;23;20166;-69
2023/12/27 14:45:45;;;;;;;12.10;3.47;;;;;;;10.51;72.09;100686.47;6237643;23;20214;-66
2023/12/27 14:48:14;;;;;;;6.90;2.33;;;;;;;10.36;72.57;100678.16;6237252;23;20849;-65
2023/12/27 14:50:42;;;;;;;11.60;2.93;;;;;;;10.27;73.21;100684.28;6237161;23;20182;-66
2023/12/27 14:53:11;;;;;;;6.73;2.97;;;;;;;10.27;73.10;100688.75;6237054;23;20208;-68
2023/12/27 14:55:41;;;;;;;8.63;3.10;;;;;;;10.24;73.29;100689.03;6238115;23;20186;-66
2023/12/27 14:58:11;;;;;;;7.67;2.53;;;;;;;10.27;73.49;100699.34;6237489;23;20234;-66
2023/12/27 15:00:41;;;;;;;7.57;3.00;;;;;;;10.25;73.06;100696.00;6237778;23;20185;-66
2023/12/27 15:03:10;;;;;;;7.60;2.30;;;;;;;10.17;73.31;100684.28;6236960;23;20491;-66
2023/12/27 15:05:39;;;;;;;8.20;3.40;;;;;;;10.19;73.14;100681.50;6237470;23;20180;-67
2023/12/27 15:08:11;;;;;;;5.63;2.33;;;;;;;10.08;73.26;100681.63;6237539;23;20184;-67
2023/12/27 15:10:40;;;;;;;6.37;2.70;;;;;;;10.03;73.63;100671.41;6238318;23;20180;-66
2023/12/27 15:13:12;;;;;;;9.00;2.83;;;;;;;10.05;73.27;100677.41;6236985;23;20264;-66
2023/12/27 15:15:44;;;;;;;6.77;2.80;;;;;;;10.06;73.12;100676.44;6237853;23;20173;-67
2023/12/27 15:18:19;;;;;;;12.00;3.33;;;;;;;10.08;72.88;100678.97;6237442;23;20249;-67
2023/12/27 15:21:09;;;;;;;8.40;3.37;;;;;;;10.03;72.65;100671.41;6234905;23;20696;-66
2023/12/27 15:23:46;;;;;;;10.13;3.73;;;;;;;9.95;72.50;100670.44;6235858;23;20213;-69
2023/12/27 15:26:44;;;;;;;10.57;3.33;;;;;;;9.84;72.58;100660.84;6237681;23;20251;-67
2023/12/27 15:32:18;;;;;;;9.77;4.33;;;;;;;9.74;72.57;100655.53;6236449;23;20200;-66
2023/12/27 15:35:01;;;;;;;11.60;4.20;;;;;;;9.67;72.50;100649.13;6232987;23;20180;-66
2023/12/27 15:37:32;;;;;;;10.13;3.90;;;;;;;9.65;72.70;100644.94;6239214;23;20227;-66
2023/12/27 15:40:02;;;;;;;8.70;4.03;;;;;;;9.62;72.49;100640.75;6239759;23;20207;-67
2023/12/27 15:42:34;;;;;;;14.90;4.53;;;;;;;9.65;72.16;100639.63;6239424;23;20242;-67
2023/12/27 15:45:09;;;;;;;11.03;4.50;;;;;;;9.61;72.26;100643.53;6238306;23;20168;-65
2023/12/27 15:51:27;;;;;;;10.87;4.63;;;;;;;9.65;71.98;100644.94;6239570;23;20298;-66
2023/12/27 15:54:23;;;;;;;11.57;5.00;;;;;;;9.68;72.09;100639.34;6239047;23;20172;-65
2023/12/27 15:56:59;;;;;;;10.30;4.60;;;;;;;9.64;71.97;100635.31;6239509;23;20203;-66
2023/12/27 15:59:39;;;;;;;14.70;5.00;;;;;;;9.67;71.92;100627.09;6238105;23;20187;-66
2023/12/27 16:05:10;;;;;;;13.00;4.93;;;;;;;9.61;71.65;100623.19;6238079;23;20607;-70
2023/12/27 16:07:43;;;;;;;11.83;5.43;;;;;;;9.55;71.73;100628.19;6238832;23;20168;-67
2023/12/27 16:10:11;;;;;;;17.57;7.20;;;;;;;9.51;72.01;100616.19;6239700;23;20283;-65
2023/12/27 16:12:43;;;;;;;18.80;9.13;;;;;;;9.48;71.97;100627.09;6238252;23;20940;-67
2023/12/27 16:15:12;;;;;;;22.77;9.40;;;;;;;9.45;71.62;100633.47;6238564;23;20524;-65
2023/12/27 16:17:42;;;;;;;16.93;7.43;;;;;;;9.39;71.83;100621.63;6239652;23;20246;-68
2023/12/27 16:20:13;;;;;;;15.00;5.43;;;;;;;9.33;71.93;100616.88;6239579;23;20540;-68
2023/12/27 16:22:42;;;;;;;13.80;4.37;;;;;;;9.32;71.96;100623.13;6238697;23;20234;-66
2023/12/27 16:25:11;;;;;;;10.30;4.53;;;;;;;9.27;71.82;100614.78;6238310;23;20210;-66
2023/12/27 16:27:40;;;;;;;9.57;4.37;;;;;;;9.30;71.94;100619.81;6239156;23;20520;-65
2023/12/27 16:30:10;;;;;;;12.97;5.47;;;;;;;9.31;71.74;100615.34;6239023;23;20180;-69
2023/12/27 16:32:44;;;;;;;18.77;7.47;;;;;;;9.25;71.97;100606.13;6238671;23;20274;-67
2023/12/27 16:35:15;;;;;;;10.47;5.83;;;;;;;9.26;71.85;100612.25;6238299;23;20238;-67
2023/12/27 16:37:50;;;;;;;13.63;5.73;;;;;;;9.30;72.05;100619.81;6239245;23;20179;-67
2023/12/27 16:40:19;;;;;;;11.13;5.00;;;;;;;9.34;71.86;100620.34;6238587;23;20171;-69
2023/12/27 16:42:49;;;;;;;10.33;4.53;;;;;;;9.38;71.73;100619.97;6237872;23;20186;-69
2023/12/27 16:45:41;;;;;;;12.57;4.97;;;;;;;9.41;71.71;100619.66;6237293;23;20253;-67
2023/12/27 16:51:59;;;;;;;9.77;4.40;;;;;;;9.30;72.61;100618.97;6238836;23;20186;-67
2023/12/27 16:54:30;;;;;;;10.00;4.67;;;;;;;9.32;72.50;100617.03;6238381;23;20196;-66
2023/12/27 16:57:14;;;;;;;10.63;4.07;;;;;;;9.31;72.72;100613.53;6238253;23;20956;-67
2023/12/27 17:00:21;;;;;;;10.00;4.00;;;;;;;9.28;72.86;100605.88;6212971;23;20763;-68
2023/12/27 17:02:54;;;;;;;10.00;4.00;;;;;;;9.23;73.02;100597.50;6232466;23;20188;-67
2023/12/27 17:05:29;;;;;;;13.57;5.63;;;;;;;9.17;73.54;100592.75;6236078;23;20184;-67
2023/12/27 17:08:05;;;;;;;10.17;5.13;;;;;;;9.16;73.54;100596.34;6239004;23;20215;-68
2023/12/27 17:10:41;;;;;;;11.30;4.97;;;;;;;9.08;73.94;100588.28;6238798;23;20245;-66
2023/12/27 17:14:04;;;;;;;14.87;7.50;;;;;;;9.04;74.35;100586.88;6238277;23;20195;-68
2023/12/27 17:16:35;;;;;;;19.00;9.30;;;;;;;8.98;74.99;100600.63;6238223;23;20184;-65
2023/12/27 17:19:07;;;;;;;15.13;8.23;;;;;;;8.98;74.87;100592.69;6238841;23;20262;-68
2023/12/27 17:21:39;;;;;;;15.27;6.27;;;;;;;8.98;75.01;100588.25;6236961;23;20184;-66
2023/12/27 17:24:09;;;;;;;15.60;6.10;;;;;;;8.90;75.39;100587.25;6237561;23;20202;-66
2023/12/27 17:27:02;;;;;;;19.40;5.80;;;;;;;8.89;75.74;100593.50;6236676;23;20214;-67
2023/12/27 17:29:36;;;;;;;10.47;5.70;;;;;;;8.99;75.50;100591.72;6229138;23;20856;-66
2023/12/27 17:32:05;;;;;;;13.43;6.13;;;;;;;9.05;75.03;100589.41;6238391;23;20267;-68
2023/12/27 17:34:35;;;;;;;13.90;6.30;;;;;;;9.09;74.72;100589.94;6236347;23;20183;-67
2023/12/27 17:40:56;;;;;;;12.83;5.67;;;;;;;8.92;75.62;100583.50;6237195;23;20504;-70
2023/12/27 17:43:53;;;;;;;13.13;4.97;;;;;;;8.92;75.88;100582.66;6237206;23;20174;-68
2023/12/27 17:46:51;;;;;;;15.83;5.03;;;;;;;8.86;76.38;100585.84;6236891;23;20225;-69
2023/12/27 17:49:41;;;;;;;11.83;5.17;;;;;;;8.83;76.44;100578.19;6237088;23;20230;-69
2023/12/27 17:52:13;;;;;;;10.80;5.00;;;;;;;8.82;76.30;100565.91;6237807;23;20178;-69
2023/12/27 17:54:49;;;;;;;10.77;5.50;;;;;;;8.82;76.45;100568.56;6235551;23;20174;-66
2023/12/27 17:57:41;;;;;;;10.30;5.00;;;;;;;8.77;76.14;100560.22;6234715;23;20184;-69
2023/12/27 18:00:18;;;;;;;12.87;5.23;;;;;;;8.69;76.44;100560.88;6236948;23;20159;-67
2023/12/27 18:02:57;;;;;;;8.97;4.70;;;;;;;8.62;76.83;100559.72;6237066;23;20174;-67
2023/12/27 18:05:31;;;;;;;11.17;5.60;;;;;;;8.52;77.10;100546.50;6236358;23;20171;-68
2023/12/27 18:07:59;;;;;;;12.47;5.47;;;;;;;8.46;77.33;100544.38;6237806;23;20202;-69
2023/12/27 18:10:30;;;;;;;11.97;5.70;;;;;;;8.41;77.65;100551.03;6236334;23;20187;-67
2023/12/27 18:13:00;;;;;;;14.00;5.00;;;;;;;8.37;77.88;100541.69;6238493;23;20206;-66
2023/12/27 18:15:29;;;;;;;16.67;6.70;;;;;;;8.33;77.83;100549.03;6237860;23;20268;-67
2023/12/27 18:21:30;;;;;;;9.37;5.37;;;;;;;8.41;77.63;100546.59;6240444;23;20193;-69
2023/12/27 18:24:12;;;;;;;10.43;5.27;;;;;;;8.38;77.79;100549.47;6237668;23;20264;-69
2023/12/27 18:27:17;;;;;;;12.50;5.63;;;;;;;8.38;77.89;100546.84;6240392;23;20257;-72
2023/12/27 18:38:07;;;;;;;13.20;5.30;;;;;;;8.40;77.51;100546.72;6113603;23;20160;-69
2023/12/27 18:40:53;;;;;;;12.90;6.40;;;;;;;8.32;77.70;100555.28;6039203;23;20186;-69
2023/12/27 18:44:15;;;;;;;10.37;5.60;;;;;;;8.27;78.06;100554.81;6109839;23;20507;-67
2023/12/27 18:53:13;;;;;;;10.77;5.43;;;;;;;8.23;78.65;100543.69;6236791;23;20244;-71
2023/12/27 18:55:57;;;;;;;15.47;5.90;;;;;;;8.27;78.35;100542.44;6235459;23;20171;-66
2023/12/27 18:58:34;;;;;;;9.67;5.10;;;;;;;8.31;78.14;100540.41;6236381;23;20645;-68
2023/12/27 19:01:17;;;;;;;18.37;5.67;;;;;;;8.30;78.11;100538.69;6200506;23;20618;-66
2023/12/27 19:06:39;;;;;;;12.63;5.43;;;;;;;8.27;78.33;100534.50;6236083;23;20178;-66
2023/12/27 19:09:11;;;;;;;10.57;5.33;;;;;;;8.33;78.32;100538.47;6237558;23;20174;-67
2023/12/27 19:11:50;;;;;;;13.00;5.33;;;;;;;8.38;77.59;100538.91;6237572;23;20173;-66
2023/12/27 19:14:19;;;;;;;12.03;5.47;;;;;;;8.31;77.99;100543.06;6235349;23;20199;-69
2023/12/27 19:16:47;;;;;;;14.27;5.67;;;;;;;8.29;78.51;100542.31;6236626;23;20209;-70
2023/12/27 19:19:19;;;;;;;14.00;5.57;;;;;;;8.30;78.43;100543.97;6236949;23;20598;-72
2023/12/27 19:22:29;;;;;;;;;;;;;;;;;;;;;
2023/12/27 19:25:36;;;;;;;14.03;5.77;;;;;;;8.36;78.42;100542.63;6073015;23;20276;-73
2023/12/27 19:28:05;;;;;;;10.77;5.33;;;;;;;8.40;78.27;100546.72;6191586;23;20191;-66
2023/12/27 19:30:50;;;;;;;14.87;5.17;;;;;;;8.45;78.27;100553.25;6237915;23;20175;-67
2023/12/27 19:37:40;;;;;;;14.57;6.10;;;;;;;8.44;78.47;100534.91;6237704;23;20186;-65
2023/12/27 19:44:23;;;;;;;13.70;7.00;;;;;;;8.15;80.98;100534.75;6195062;23;20224;-67
2023/12/27 19:47:02;;;;;;;13.50;7.13;;;;;;;8.15;81.57;100542.66;6236000;23;20182;-67
2023/12/27 19:49:53;;;;;;;14.73;6.60;;;;;;;8.25;81.41;100556.75;6213908;23;20977;-67
2023/12/27 19:52:26;;;;;;;14.03;6.63;;;;;;;8.40;80.71;100550.19;6236041;23;20183;-67
2023/12/27 19:55:11;;;;;;;13.70;7.00;;;;;;;8.50;79.96;100559.00;6233944;23;20242;-70
2023/12/27 19:57:46;;;;;;;14.10;6.83;;;;;;;8.54;79.54;100555.09;6237099;23;20253;-67
2023/12/27 20:00:20;;;;;;;14.77;7.63;;;;;;;8.48;79.39;100558.28;6237236;23;20218;-67
2023/12/27 20:02:55;;;;;;;15.43;7.23;;;;;;;8.47;79.86;100546.03;6231105;23;20653;-67
2023/12/27 20:05:31;;;;;;;14.77;6.70;;;;;;;8.48;79.75;100546.88;6232104;23;20206;-69
2023/12/27 20:08:31;;;;;;;14.63;7.17;;;;;;;8.46;80.04;100560.22;6236008;23;20203;-67
2023/12/27 20:11:03;;;;;;;14.33;7.50;;;;;;;8.55;79.38;100559.44;6233306;23;20182;-68
2023/12/27 20:13:32;;;;;;;18.63;8.87;;;;;;;8.56;78.88;100566.38;6234635;23;20215;-67
2023/12/27 20:16:32;;;;;;;17.80;7.93;;;;;;;8.58;78.56;100567.09;6234344;23;20171;-69
2023/12/27 20:19:07;;;;;;;12.93;6.87;;;;;;;8.60;78.22;100566.97;6226353;23;20662;-68
2023/12/27 20:25:07;;;;;;;15.83;8.03;;;;;;;8.57;78.14;100578.63;6074818;23;20206;-68
2023/12/27 20:27:41;;;;;;;18.23;8.53;;;;;;;8.56;78.12;100582.25;6236718;23;20198;-68
2023/12/27 20:30:16;;;;;;;22.33;8.70;;;;;;;8.56;77.68;100579.59;6236130;23;20228;-67
2023/12/27 20:32:47;;;;;;;19.10;9.00;;;;;;;8.61;77.42;100585.34;6232838;23;20171;-66
2023/12/27 20:35:19;;;;;;;13.83;6.50;;;;;;;8.60;76.82;100581.03;6235718;23;20201;-69
2023/12/27 20:37:49;;;;;;;14.70;7.40;;;;;;;8.34;77.42;100566.59;6235379;23;20164;-67
2023/12/27 20:41:04;;;;;;;14.37;6.87;;;;;;;8.14;78.72;100570.88;6236322;23;20218;-67
2023/12/27 20:47:17;;;;;;;13.20;7.03;;;;;;;7.96;79.43;100569.78;6083808;23;20266;-67
2023/12/27 20:53:52;;;;;;;15.30;8.10;;;;;;;7.71;81.11;100565.72;6114549;23;20501;-69
2023/12/27 20:59:51;;;;;;;11.50;6.87;;;;;;;7.51;82.58;100566.53;6112781;23;20482;-69
2023/12/27 21:02:22;;;;;;;12.23;7.27;;;;;;;7.52;82.74;100573.47;6111418;23;20272;-67
2023/12/27 21:09:00;;;;;;;16.83;9.63;;;;;;;7.68;82.27;100573.03;6102185;23;20353;-68
2023/12/27 21:12:23;;;;;;;17.37;9.37;;;;;;;7.87;81.10;100579.31;6024479;23;20516;-68
2023/12/27 21:15:26;;;;;;;;;;;;;;;;;;;;;
2023/12/27 21:21:33;;;;;;;20.00;9.43;;;;;;;8.21;78.54;100589.69;6019382;23;20252;-73
2023/12/27 21:27:43;;;;;;;18.77;10.17;;;;;;;8.14;77.60;100591.16;6025039;23;20245;-67
2023/12/27 21:30:23;;;;;;;21.47;9.20;;;;;;;8.09;77.32;100604.75;6054234;23;20206;-68
2023/12/27 21:32:59;;;;;;;19.80;9.17;;;;;;;8.06;77.09;100607.66;6138458;23;20188;-66
2023/12/27 21:35:32;;;;;;;21.30;11.67;;;;;;;8.01;77.31;100595.78;6137652;23;20711;-69
2023/12/27 21:41:46;;;;;;;26.37;13.10;;;;;;;8.00;77.05;100579.13;6109792;23;20223;-66
2023/12/27 21:44:19;;;;;;;22.77;12.47;;;;;;;7.99;77.02;100576.63;6141132;23;20236;-66
2023/12/27 21:46:48;;;;;;;20.20;11.97;;;;;;;7.93;77.16;100568.22;6188484;23;20188;-65
2023/12/27 21:49:20;;;;;;;21.70;10.97;;;;;;;7.82;77.33;100560.41;6233370;23;20222;-66
2023/12/27 21:52:01;;;;;;;23.83;11.27;;;;;;;7.80;77.92;100562.31;6232788;23;20203;-68
2023/12/27 21:54:30;;;;;;;15.17;9.10;;;;;;;7.79;78.18;100560.63;6234724;23;20200;-71
2023/12/27 21:57:10;;;;;;;17.37;8.63;;;;;;;7.82;78.35;100546.34;6181765;23;20315;-67
2023/12/27 22:11:43;;;;;;;14.93;6.80;;;;;;;7.79;76.33;100534.25;5998666;23;20186;-74
2023/12/27 23:30:43;;;;;;;9.20;3.43;;;;;;;8.10;65.47;100571.25;6079417;23;20368;-75
2023/12/27 23:33:37;;;;;;;10.07;3.03;;;;;;;8.08;64.51;100571.41;6223919;23;20179;-73
2023/12/27 23:40:53;;;;;;;7.37;3.13;;;;;;;8.15;64.58;100591.03;6118451;23;20221;-73
